Glen, Vermont
Current Conditions -  °F | °C
As of 5:35 AM on Sunday 21 Dec 2014 (Local Time) from KRUT Reporting Station
Overcast Overcast  
Wind Chill: 21°   Ceiling: 3600
Heat Index: 21°   Visibility: 10mi
Dew Point: 18°   Wind: 3mph
Humidity: 86%   Direction: 340°NNW
Pressure: 30.28"   Gusts: NA
Location:  43.6369°N, 72.9375°W
Report Text: KRUT 211035Z 34003KT 10SM OVC036 M06/M08 A3028 RMK AO1
Loading
Personal Weather Stations






























Interactive Weather Map New forecast layout! Learn more

10-Day Weather Forecast

Advertisements
Track Severe Weather on mobile